createdAt,value
2019-01-17T00:01:42.450Z,96703.03
2019-01-17T00:07:54.977Z,96703.86
2019-01-17T00:13:03.429Z,96702.58
2019-01-17T00:18:29.888Z,96700.34
2019-01-17T00:23:38.116Z,96695.48
2019-01-17T00:28:52.332Z,96692.22
2019-01-17T00:34:03.767Z,96685.47
2019-01-17T00:39:12.592Z,96689.02
2019-01-17T00:44:21.090Z,96681.25
2019-01-17T00:49:30.488Z,96672.66
2019-01-17T00:54:42.752Z,96671.67
2019-01-17T00:59:51.369Z,96670.33
2019-01-17T01:07:04.913Z,96667.59
2019-01-17T01:12:20.299Z,96672.56
2019-01-17T01:17:27.742Z,96674.98
2019-01-17T01:22:38.994Z,96680.48
2019-01-17T01:27:47.743Z,96683.91
2019-01-17T01:32:56.148Z,96681.48
2019-01-17T01:38:10.579Z,96670.55
2019-01-17T01:43:19.012Z,96672.56
2019-01-17T01:48:27.692Z,96674.11
2019-01-17T01:53:30.937Z,96676.94
2019-01-17T01:58:34.140Z,96670.67
2019-01-17T02:03:37.393Z,96677.64
2019-01-17T02:08:40.647Z,96675.52
2019-01-17T02:13:43.910Z,96670.42
2019-01-17T02:18:47.115Z,96666.02
2019-01-17T02:23:50.453Z,96678.13
2019-01-17T02:28:53.697Z,96674.66
2019-01-17T02:33:57.056Z,96670.28
2019-01-17T02:39:00.266Z,96673.59
2019-01-17T02:44:03.498Z,96675.21
2019-01-17T02:49:06.747Z,96670.23
2019-01-17T02:54:09.991Z,96671.84
2019-01-17T02:59:13.230Z,96669.94
2019-01-17T03:04:16.462Z,96666.25
2019-01-17T03:09:19.825Z,96658.58
2019-01-17T03:14:23.187Z,96664.16
2019-01-17T03:19:26.417Z,96649.78
2019-01-17T03:24:29.668Z,96648.70
2019-01-17T03:29:33.093Z,96650.72
2019-01-17T03:34:36.314Z,96651.59
2019-01-17T03:39:39.545Z,96650.66
2019-01-17T03:44:42.773Z,96643.56
2019-01-17T03:49:46.001Z,96641.14
2019-01-17T03:54:52.842Z,96645.81
2019-01-17T03:59:52.637Z,96629.21
2019-01-17T04:04:55.849Z,96636.21
2019-01-17T04:09:59.066Z,96642.86
2019-01-17T04:15:02.482Z,96623.45
2019-01-17T04:20:07.559Z,96615.19
2019-01-17T04:25:11.032Z,96604.23
2019-01-17T04:30:17.214Z,96602.95
2019-01-17T04:35:20.431Z,96605.24
2019-01-17T04:40:23.662Z,96612.56
2019-01-17T04:45:26.871Z,96619.41
2019-01-17T04:50:30.128Z,96616.56
2019-01-17T04:55:33.355Z,96620.92
2019-01-17T05:00:36.668Z,96624.48
2019-01-17T05:05:39.978Z,96622.75
2019-01-17T05:10:43.192Z,96615.97
2019-01-17T05:15:46.475Z,96607.53
2019-01-17T05:20:49.875Z,96613.80
2019-01-17T05:25:53.234Z,96610.27
2019-01-17T05:30:56.480Z,96611.39
2019-01-17T05:35:59.917Z,96610.16
2019-01-17T05:41:03.164Z,96607.98
2019-01-17T05:46:06.393Z,96609.86
2019-01-17T05:51:09.617Z,96613.73
2019-01-17T05:56:12.862Z,96617.25
2019-01-17T06:01:16.204Z,96610.77
2019-01-17T06:06:22.743Z,96615.17
2019-01-17T06:11:26.139Z,96614.92
2019-01-17T06:16:29.399Z,96612.02
2019-01-17T06:21:32.634Z,96603.67
2019-01-17T06:26:35.858Z,96598.14
2019-01-17T06:31:39.087Z,96596.73
2019-01-17T06:36:42.361Z,96592.59
2019-01-17T06:41:45.784Z,96592.66
2019-01-17T06:46:49.205Z,96583.92
2019-01-17T06:51:52.611Z,96582.01
2019-01-17T06:56:56.057Z,96589.52
2019-01-17T07:01:59.335Z,96587.35
2019-01-17T07:07:02.585Z,96585.59
2019-01-17T07:12:06.958Z,96597.38
2019-01-17T07:17:10.180Z,96600.95
2019-01-17T07:22:13.418Z,96595.47
2019-01-17T07:27:16.697Z,96594.97
2019-01-17T07:32:19.921Z,96586.43
2019-01-17T07:37:23.212Z,96575.71
2019-01-17T07:42:26.464Z,96580.59
2019-01-17T07:47:29.672Z,96582.84
2019-01-17T07:52:32.935Z,96570.55
2019-01-17T07:57:36.167Z,96568.53
2019-01-17T08:02:40.366Z,96561.17
2019-01-17T08:07:43.588Z,96554.48
2019-01-17T08:12:46.853Z,96558.91
2019-01-17T08:17:50.239Z,96547.53
2019-01-17T08:22:53.877Z,96556.73
2019-01-17T08:27:57.111Z,96553.55
2019-01-17T08:33:00.529Z,96551.57
2019-01-17T08:38:03.818Z,96553.96
2019-01-17T08:43:07.173Z,96547.70
2019-01-17T08:48:10.456Z,96546.76
2019-01-17T08:53:13.712Z,96542.42
2019-01-17T08:58:16.964Z,96548.36
2019-01-17T09:03:20.258Z,96546.84
2019-01-17T09:08:23.689Z,96546.39
2019-01-17T09:13:26.965Z,96549.23
2019-01-17T09:18:30.423Z,96545.23
2019-01-17T09:23:33.690Z,96543.92
2019-01-17T09:28:36.964Z,96545.73
2019-01-17T09:33:40.342Z,96542.74
2019-01-17T09:38:43.608Z,96552.76
2019-01-17T09:43:46.867Z,96551.41
2019-01-17T09:48:50.220Z,96542.73
2019-01-17T09:53:53.439Z,96536.11
2019-01-17T09:58:56.691Z,96525.04
2019-01-17T10:03:59.968Z,96524.00
2019-01-17T10:09:03.243Z,96523.20
2019-01-17T10:14:06.678Z,96515.72
2019-01-17T10:19:23.508Z,96522.91
2019-01-17T10:24:50.412Z,96512.83
2019-01-17T10:30:06.416Z,96503.86
2019-01-17T10:35:33.502Z,96490.74
2019-01-17T10:40:53.633Z,96478.22
2019-01-17T10:46:08.149Z,96473.53
2019-01-17T10:51:28.390Z,96475.91
2019-01-17T10:58:48.667Z,96463.85
2019-01-17T11:04:02.980Z,96450.78
2019-01-17T11:10:06.367Z,96446.97
2019-01-17T11:15:25.859Z,96443.11
2019-01-17T11:20:52.215Z,96437.95
2019-01-17T11:27:09.308Z,96434.05
2019-01-17T11:32:21.814Z,96423.70
2019-01-17T11:37:42.372Z,96421.17
2019-01-17T11:43:00.220Z,96406.80
2019-01-17T11:48:20.217Z,96418.50
2019-01-17T11:55:33.608Z,96413.88
2019-01-17T12:00:46.966Z,96409.96
2019-01-17T12:05:50.296Z,96409.05
2019-01-17T12:10:53.530Z,96407.47
2019-01-17T12:15:56.887Z,96396.52
2019-01-17T12:21:00.109Z,96395.50
2019-01-17T12:26:04.546Z,96380.83
2019-01-17T12:31:07.807Z,96376.16
2019-01-17T12:36:11.107Z,96376.62
2019-01-17T12:41:14.337Z,96369.86
2019-01-17T12:46:17.615Z,96368.81
2019-01-17T12:51:20.850Z,96366.03
2019-01-17T12:56:24.260Z,96362.78
2019-01-17T13:01:27.516Z,96361.03
2019-01-17T13:06:30.733Z,96357.89
2019-01-17T13:11:34.061Z,96358.54
2019-01-17T13:16:37.475Z,96356.05
2019-01-17T13:21:40.732Z,96350.37
2019-01-17T13:26:43.977Z,96351.69
2019-01-17T13:31:47.362Z,96353.45
2019-01-17T13:36:50.581Z,96361.72
2019-01-17T13:41:53.891Z,96385.20
2019-01-17T13:46:57.275Z,96396.48
2019-01-17T13:52:00.547Z,96378.50
2019-01-17T13:57:07.438Z,96399.11
2019-01-17T14:02:07.191Z,96404.45
2019-01-17T14:07:10.537Z,96410.00
2019-01-17T14:12:13.904Z,96420.73
2019-01-17T14:17:17.133Z,96445.78
2019-01-17T14:22:20.544Z,96449.66
2019-01-17T14:27:23.935Z,96464.44
2019-01-17T14:32:27.473Z,96475.60
2019-01-17T14:37:30.697Z,96471.32
2019-01-17T14:42:34.023Z,96473.27
2019-01-17T14:47:37.384Z,96470.81
2019-01-17T14:52:41.202Z,96476.92
2019-01-17T14:57:44.602Z,96496.41
2019-01-17T15:02:47.845Z,96499.16
2019-01-17T15:07:51.175Z,96482.54
2019-01-17T15:12:54.649Z,96484.53
2019-01-17T15:17:58.150Z,96489.24
2019-01-17T15:23:01.513Z,96487.66
2019-01-17T15:28:05.880Z,96488.72
2019-01-17T15:33:08.600Z,96486.52
2019-01-17T15:38:12.016Z,96481.64
2019-01-17T15:43:16.387Z,96484.77
2019-01-17T15:48:19.792Z,96496.88
2019-01-17T15:53:23.109Z,96489.77
2019-01-17T15:58:26.588Z,96486.34
2019-01-17T16:03:29.935Z,96491.14
2019-01-17T16:08:33.382Z,96498.97
2019-01-17T16:13:36.797Z,96500.83
2019-01-17T16:18:40.120Z,96498.08
2019-01-17T16:23:43.474Z,96503.07
2019-01-17T16:28:46.967Z,96511.97
2019-01-17T16:33:50.291Z,96511.81
2019-01-17T16:38:53.777Z,96517.59
2019-01-17T16:43:57.102Z,96521.51
2019-01-17T16:49:00.516Z,96511.52
2019-01-17T16:54:04.040Z,96511.22
2019-01-17T16:59:07.464Z,96517.98
2019-01-17T17:04:10.894Z,96564.17
2019-01-17T17:09:14.380Z,96557.03
2019-01-17T17:14:17.726Z,96564.04
2019-01-17T17:19:21.301Z,96555.79
2019-01-17T17:24:24.657Z,96555.48
2019-01-17T17:29:28.108Z,96560.81
2019-01-17T17:34:31.445Z,96552.88
2019-01-17T17:39:34.952Z,96567.77
2019-01-17T17:44:38.304Z,96569.44
2019-01-17T17:49:41.821Z,96574.42
2019-01-17T17:54:45.197Z,96573.44
2019-01-17T17:59:48.532Z,96570.66
2019-01-17T18:04:51.967Z,96586.02
2019-01-17T18:09:56.168Z,96571.09
2019-01-17T18:15:00.688Z,96578.33
2019-01-17T18:20:05.124Z,96576.01
2019-01-17T18:25:08.503Z,96586.87
2019-01-17T18:30:16.045Z,96584.05
2019-01-17T18:35:19.648Z,96595.84
2019-01-17T18:40:23.154Z,96609.37
2019-01-17T18:45:26.967Z,96606.20
2019-01-17T18:50:31.254Z,96607.30
2019-01-17T18:55:34.691Z,96610.62
2019-01-17T19:00:38.087Z,96622.05
2019-01-17T19:05:41.523Z,96622.34
2019-01-17T19:10:45.064Z,96620.44
2019-01-17T19:15:48.831Z,96626.84
2019-01-17T19:20:52.254Z,96628.14
2019-01-17T19:25:55.678Z,96641.73
2019-01-17T19:30:59.147Z,96638.06
2019-01-17T19:36:02.544Z,96652.95
2019-01-17T19:41:06.001Z,96700.48
2019-01-17T19:46:09.814Z,96706.25
2019-01-17T19:51:13.432Z,96744.16
2019-01-17T19:56:17.289Z,96752.80
2019-01-17T20:01:20.957Z,96747.73
2019-01-17T20:06:24.418Z,96758.20
2019-01-17T20:11:28.013Z,96765.34
2019-01-17T20:16:31.580Z,96774.03
2019-01-17T20:21:35.504Z,96775.27
2019-01-17T20:26:38.888Z,96774.15
2019-01-17T20:31:42.440Z,96773.52
2019-01-17T20:36:46.080Z,96780.11
2019-01-17T20:41:49.529Z,96798.83
2019-01-17T20:46:53.136Z,96815.72
2019-01-17T20:51:57.433Z,96812.39
2019-01-17T20:57:01.116Z,96802.24
2019-01-17T21:02:10.184Z,96825.47
2019-01-17T21:07:13.528Z,96825.23
2019-01-17T21:12:17.559Z,96818.45
2019-01-17T21:17:21.106Z,96827.51
2019-01-17T21:22:24.583Z,96824.18
2019-01-17T21:27:27.888Z,96824.82
2019-01-17T21:32:31.285Z,96823.80
2019-01-17T21:37:35.773Z,96829.14
2019-01-17T21:42:39.223Z,96844.86
2019-01-17T21:47:42.556Z,96841.94
2019-01-17T21:52:45.943Z,96848.45
2019-01-17T21:57:49.508Z,96856.88
2019-01-17T22:02:52.807Z,96871.90
2019-01-17T22:07:56.604Z,96876.60
2019-01-17T22:13:00.103Z,96890.66
2019-01-17T22:18:03.515Z,96897.89
2019-01-17T22:23:06.824Z,96886.29
2019-01-17T22:28:10.487Z,96888.86
2019-01-17T22:33:13.933Z,96890.68
2019-01-17T22:38:17.354Z,96899.92
2019-01-17T22:43:20.774Z,96911.70
2019-01-17T22:48:24.070Z,96900.63
2019-01-17T22:53:27.344Z,96904.26
2019-01-17T22:58:30.767Z,96908.27
2019-01-17T23:03:39.752Z,96920.99
2019-01-17T23:08:43.164Z,96930.39
2019-01-17T23:13:46.452Z,96938.80
2019-01-17T23:18:49.846Z,96951.22
2019-01-17T23:23:53.183Z,96971.05
2019-01-17T23:28:56.508Z,96969.44
2019-01-17T23:33:59.828Z,96983.41
2019-01-17T23:39:03.183Z,96996.39
2019-01-17T23:44:06.518Z,96992.15
2019-01-17T23:49:09.807Z,97000.89
2019-01-17T23:54:13.109Z,97007.88
2019-01-17T23:59:22.471Z,97012.86
